sensor_id;sensor_type;location;lat;lon;timestamp;temperature;humidity
52211;DHT22;38179;52.756;6.906;2023-06-24T00:00:20;18.50;99.90
52211;DHT22;38179;52.756;6.906;2023-06-24T00:02:46;18.40;99.90
52211;DHT22;38179;52.756;6.906;2023-06-24T00:05:12;18.10;99.90
52211;DHT22;38179;52.756;6.906;2023-06-24T00:07:38;17.80;99.90
52211;DHT22;38179;52.756;6.906;2023-06-24T00:10:11;17.50;99.90
52211;DHT22;38179;52.756;6.906;2023-06-24T00:12:38;17.50;99.90
52211;DHT22;38179;52.756;6.906;2023-06-24T00:15:06;17.50;99.90
52211;DHT22;38179;52.756;6.906;2023-06-24T00:17:32;17.50;99.90
52211;DHT22;38179;52.756;6.906;2023-06-24T00:19:58;17.50;99.90
52211;DHT22;38179;52.756;6.906;2023-06-24T00:22:24;17.50;99.90
52211;DHT22;38179;52.756;6.906;2023-06-24T00:24:50;17.60;99.90
52211;DHT22;38179;52.756;6.906;2023-06-24T00:27:16;17.70;99.90
52211;DHT22;38179;52.756;6.906;2023-06-24T00:29:41;17.70;99.90
52211;DHT22;38179;52.756;6.906;2023-06-24T00:32:08;17.80;99.90
52211;DHT22;38179;52.756;6.906;2023-06-24T00:34:34;17.90;99.90
52211;DHT22;38179;52.756;6.906;2023-06-24T00:37:00;18.00;99.90
52211;DHT22;38179;52.756;6.906;2023-06-24T00:39:28;18.00;99.90
52211;DHT22;38179;52.756;6.906;2023-06-24T00:41:54;18.00;99.90
52211;DHT22;38179;52.756;6.906;2023-06-24T00:44:20;18.00;99.90
52211;DHT22;38179;52.756;6.906;2023-06-24T00:46:46;18.00;99.90
52211;DHT22;38179;52.756;6.906;2023-06-24T00:49:12;17.90;99.90
52211;DHT22;38179;52.756;6.906;2023-06-24T00:51:40;17.90;99.90
52211;DHT22;38179;52.756;6.906;2023-06-24T00:54:13;17.90;99.90
52211;DHT22;38179;52.756;6.906;2023-06-24T00:56:39;17.90;99.90
52211;DHT22;38179;52.756;6.906;2023-06-24T00:59:06;17.90;99.90
52211;DHT22;38179;52.756;6.906;2023-06-24T01:01:33;17.80;99.90
52211;DHT22;38179;52.756;6.906;2023-06-24T01:04:03;17.50;99.90
52211;DHT22;38179;52.756;6.906;2023-06-24T01:06:29;17.30;99.90
52211;DHT22;38179;52.756;6.906;2023-06-24T01:08:59;17.30;99.90
52211;DHT22;38179;52.756;6.906;2023-06-24T01:11:26;17.50;99.90
52211;DHT22;38179;52.756;6.906;2023-06-24T01:13:52;17.50;99.90
52211;DHT22;38179;52.756;6.906;2023-06-24T01:24:39;17.20;99.90
52211;DHT22;38179;52.756;6.906;2023-06-24T01:32:52;17.20;99.90
52211;DHT22;38179;52.756;6.906;2023-06-24T01:35:23;17.20;99.90
52211;DHT22;38179;52.756;6.906;2023-06-24T01:37:51;17.30;99.90
52211;DHT22;38179;52.756;6.906;2023-06-24T01:40:31;17.30;99.90
52211;DHT22;38179;52.756;6.906;2023-06-24T01:43:00;17.40;99.90
52211;DHT22;38179;52.756;6.906;2023-06-24T01:45:44;17.30;99.90
52211;DHT22;38179;52.756;6.906;2023-06-24T01:48:16;17.30;99.90
52211;DHT22;38179;52.756;6.906;2023-06-24T01:50:50;17.20;99.90
52211;DHT22;38179;52.756;6.906;2023-06-24T01:53:19;17.20;99.90
52211;DHT22;38179;52.756;6.906;2023-06-24T01:55:48;17.30;99.90
52211;DHT22;38179;52.756;6.906;2023-06-24T01:58:16;17.20;99.90
52211;DHT22;38179;52.756;6.906;2023-06-24T02:00:43;17.20;99.90
52211;DHT22;38179;52.756;6.906;2023-06-24T02:03:10;17.20;99.90
52211;DHT22;38179;52.756;6.906;2023-06-24T02:05:37;17.10;99.90
52211;DHT22;38179;52.756;6.906;2023-06-24T02:08:06;17.10;99.90
52211;DHT22;38179;52.756;6.906;2023-06-24T02:10:34;17.20;99.90
52211;DHT22;38179;52.756;6.906;2023-06-24T02:13:02;17.20;99.90
52211;DHT22;38179;52.756;6.906;2023-06-24T02:15:29;17.20;99.90
52211;DHT22;38179;52.756;6.906;2023-06-24T02:17:56;17.30;99.90
52211;DHT22;38179;52.756;6.906;2023-06-24T02:20:23;17.20;99.90
52211;DHT22;38179;52.756;6.906;2023-06-24T02:22:53;17.30;99.90
52211;DHT22;38179;52.756;6.906;2023-06-24T02:25:19;17.30;99.90
52211;DHT22;38179;52.756;6.906;2023-06-24T02:27:47;17.20;99.90
52211;DHT22;38179;52.756;6.906;2023-06-24T02:30:14;17.10;99.90
52211;DHT22;38179;52.756;6.906;2023-06-24T02:32:41;16.90;99.90
52211;DHT22;38179;52.756;6.906;2023-06-24T02:35:07;16.80;99.90
52211;DHT22;38179;52.756;6.906;2023-06-24T02:37:34;16.70;99.90
52211;DHT22;38179;52.756;6.906;2023-06-24T02:40:01;16.60;99.90
52211;DHT22;38179;52.756;6.906;2023-06-24T02:42:28;16.70;99.90
52211;DHT22;38179;52.756;6.906;2023-06-24T02:44:54;16.60;99.90
52211;DHT22;38179;52.756;6.906;2023-06-24T02:47:21;16.50;99.90
52211;DHT22;38179;52.756;6.906;2023-06-24T02:49:48;16.50;99.90
52211;DHT22;38179;52.756;6.906;2023-06-24T02:52:15;16.40;99.90
52211;DHT22;38179;52.756;6.906;2023-06-24T02:54:42;16.40;99.90
52211;DHT22;38179;52.756;6.906;2023-06-24T02:57:08;16.40;99.90
52211;DHT22;38179;52.756;6.906;2023-06-24T02:59:35;16.40;99.90
52211;DHT22;38179;52.756;6.906;2023-06-24T03:02:02;16.30;99.90
52211;DHT22;38179;52.756;6.906;2023-06-24T03:04:29;16.30;99.90
52211;DHT22;38179;52.756;6.906;2023-06-24T03:06:57;16.30;99.90
52211;DHT22;38179;52.756;6.906;2023-06-24T03:09:27;16.30;99.90
52211;DHT22;38179;52.756;6.906;2023-06-24T03:11:52;16.30;99.90
52211;DHT22;38179;52.756;6.906;2023-06-24T03:14:19;16.30;99.90
52211;DHT22;38179;52.756;6.906;2023-06-24T03:16:45;16.30;99.90
52211;DHT22;38179;52.756;6.906;2023-06-24T03:19:11;16.40;99.90
52211;DHT22;38179;52.756;6.906;2023-06-24T03:21:37;16.50;99.90
52211;DHT22;38179;52.756;6.906;2023-06-24T03:24:03;16.60;99.90
52211;DHT22;38179;52.756;6.906;2023-06-24T03:26:35;16.70;99.90
52211;DHT22;38179;52.756;6.906;2023-06-24T03:29:04;16.80;99.90
52211;DHT22;38179;52.756;6.906;2023-06-24T03:31:31;16.80;99.90
52211;DHT22;38179;52.756;6.906;2023-06-24T03:33:57;16.80;99.90
52211;DHT22;38179;52.756;6.906;2023-06-24T03:36:23;16.70;99.90
52211;DHT22;38179;52.756;6.906;2023-06-24T03:38:50;16.60;99.90
52211;DHT22;38179;52.756;6.906;2023-06-24T03:41:16;16.70;99.90
52211;DHT22;38179;52.756;6.906;2023-06-24T03:43:41;16.70;99.90
52211;DHT22;38179;52.756;6.906;2023-06-24T03:46:07;16.80;99.90
52211;DHT22;38179;52.756;6.906;2023-06-24T03:48:35;16.80;99.90
52211;DHT22;38179;52.756;6.906;2023-06-24T03:51:01;16.90;99.90
52211;DHT22;38179;52.756;6.906;2023-06-24T03:53:27;16.90;99.90
52211;DHT22;38179;52.756;6.906;2023-06-24T03:55:53;16.90;99.90
52211;DHT22;38179;52.756;6.906;2023-06-24T03:58:19;16.90;99.90
52211;DHT22;38179;52.756;6.906;2023-06-24T04:00:47;17.00;99.90
52211;DHT22;38179;52.756;6.906;2023-06-24T04:03:15;17.00;99.90
52211;DHT22;38179;52.756;6.906;2023-06-24T04:05:44;17.00;99.90
52211;DHT22;38179;52.756;6.906;2023-06-24T04:08:10;17.00;99.90
52211;DHT22;38179;52.756;6.906;2023-06-24T04:10:36;16.90;99.90
52211;DHT22;38179;52.756;6.906;2023-06-24T04:13:02;16.80;99.90
52211;DHT22;38179;52.756;6.906;2023-06-24T04:15:28;16.80;99.90
52211;DHT22;38179;52.756;6.906;2023-06-24T04:17:54;16.80;99.90
52211;DHT22;38179;52.756;6.906;2023-06-24T04:20:20;16.80;99.90
52211;DHT22;38179;52.756;6.906;2023-06-24T04:22:46;16.90;99.90
52211;DHT22;38179;52.756;6.906;2023-06-24T04:25:12;16.90;99.90
52211;DHT22;38179;52.756;6.906;2023-06-24T04:27:38;16.90;99.90
52211;DHT22;38179;52.756;6.906;2023-06-24T04:30:04;16.90;99.90
52211;DHT22;38179;52.756;6.906;2023-06-24T04:32:30;16.90;99.90
52211;DHT22;38179;52.756;6.906;2023-06-24T04:34:58;16.90;99.90
52211;DHT22;38179;52.756;6.906;2023-06-24T04:37:26;16.70;99.90
52211;DHT22;38179;52.756;6.906;2023-06-24T04:39:52;16.80;99.90
52211;DHT22;38179;52.756;6.906;2023-06-24T04:42:18;16.70;99.90
52211;DHT22;38179;52.756;6.906;2023-06-24T04:44:44;16.80;99.90
52211;DHT22;38179;52.756;6.906;2023-06-24T04:47:09;16.80;99.90
52211;DHT22;38179;52.756;6.906;2023-06-24T04:49:36;16.80;99.90
52211;DHT22;38179;52.756;6.906;2023-06-24T04:52:02;17.00;99.90
52211;DHT22;38179;52.756;6.906;2023-06-24T04:54:28;17.00;99.90
52211;DHT22;38179;52.756;6.906;2023-06-24T04:56:54;17.10;99.90
52211;DHT22;38179;52.756;6.906;2023-06-24T04:59:24;17.10;99.90
52211;DHT22;38179;52.756;6.906;2023-06-24T05:01:50;17.20;99.90
52211;DHT22;38179;52.756;6.906;2023-06-24T05:04:15;17.20;99.90
52211;DHT22;38179;52.756;6.906;2023-06-24T05:06:41;17.20;99.90
52211;DHT22;38179;52.756;6.906;2023-06-24T05:09:08;17.30;99.90
52211;DHT22;38179;52.756;6.906;2023-06-24T05:11:35;17.40;99.90
52211;DHT22;38179;52.756;6.906;2023-06-24T05:14:01;17.40;99.90
52211;DHT22;38179;52.756;6.906;2023-06-24T05:16:28;17.40;99.90
52211;DHT22;38179;52.756;6.906;2023-06-24T05:18:54;17.40;99.90
52211;DHT22;38179;52.756;6.906;2023-06-24T05:21:20;17.40;99.90
52211;DHT22;38179;52.756;6.906;2023-06-24T05:23:46;17.40;99.90
52211;DHT22;38179;52.756;6.906;2023-06-24T05:26:12;17.50;99.90
52211;DHT22;38179;52.756;6.906;2023-06-24T05:28:38;17.50;99.90
52211;DHT22;38179;52.756;6.906;2023-06-24T05:31:04;17.50;99.90
52211;DHT22;38179;52.756;6.906;2023-06-24T05:33:30;17.50;99.90
52211;DHT22;38179;52.756;6.906;2023-06-24T05:35:56;17.60;99.90
52211;DHT22;38179;52.756;6.906;2023-06-24T05:38:22;17.60;99.90
52211;DHT22;38179;52.756;6.906;2023-06-24T05:40:49;17.70;99.90
52211;DHT22;38179;52.756;6.906;2023-06-24T05:43:15;17.80;99.90
52211;DHT22;38179;52.756;6.906;2023-06-24T05:45:41;17.80;99.90
52211;DHT22;38179;52.756;6.906;2023-06-24T05:48:08;17.80;99.90
52211;DHT22;38179;52.756;6.906;2023-06-24T05:50:34;17.80;99.90
52211;DHT22;38179;52.756;6.906;2023-06-24T05:53:00;17.90;99.90
52211;DHT22;38179;52.756;6.906;2023-06-24T05:55:26;18.00;99.90
52211;DHT22;38179;52.756;6.906;2023-06-24T05:57:52;18.10;99.90
52211;DHT22;38179;52.756;6.906;2023-06-24T06:00:18;18.10;99.90
52211;DHT22;38179;52.756;6.906;2023-06-24T06:02:44;18.20;99.90
52211;DHT22;38179;52.756;6.906;2023-06-24T06:05:11;18.30;99.90
52211;DHT22;38179;52.756;6.906;2023-06-24T06:07:37;18.40;99.90
52211;DHT22;38179;52.756;6.906;2023-06-24T06:10:05;18.40;99.90
52211;DHT22;38179;52.756;6.906;2023-06-24T06:12:32;18.50;99.90
52211;DHT22;38179;52.756;6.906;2023-06-24T06:14:59;18.60;99.90
52211;DHT22;38179;52.756;6.906;2023-06-24T06:17:25;18.60;99.90
52211;DHT22;38179;52.756;6.906;2023-06-24T06:19:51;18.70;99.90
52211;DHT22;38179;52.756;6.906;2023-06-24T06:22:17;18.80;99.90
52211;DHT22;38179;52.756;6.906;2023-06-24T06:24:43;18.90;99.90
52211;DHT22;38179;52.756;6.906;2023-06-24T06:27:10;18.90;99.90
52211;DHT22;38179;52.756;6.906;2023-06-24T06:29:37;18.90;99.90
52211;DHT22;38179;52.756;6.906;2023-06-24T06:32:03;19.10;99.90
52211;DHT22;38179;52.756;6.906;2023-06-24T06:34:29;19.10;99.90
52211;DHT22;38179;52.756;6.906;2023-06-24T06:36:55;19.20;99.90
52211;DHT22;38179;52.756;6.906;2023-06-24T06:39:21;19.20;99.90
52211;DHT22;38179;52.756;6.906;2023-06-24T06:41:47;19.30;99.90
52211;DHT22;38179;52.756;6.906;2023-06-24T06:44:13;19.30;99.90
52211;DHT22;38179;52.756;6.906;2023-06-24T06:46:39;19.40;99.90
52211;DHT22;38179;52.756;6.906;2023-06-24T06:49:05;19.50;99.90
52211;DHT22;38179;52.756;6.906;2023-06-24T06:51:32;19.50;99.90
52211;DHT22;38179;52.756;6.906;2023-06-24T06:53:59;19.60;99.90
52211;DHT22;38179;52.756;6.906;2023-06-24T06:56:25;19.70;99.90
52211;DHT22;38179;52.756;6.906;2023-06-24T06:58:52;19.70;99.90
52211;DHT22;38179;52.756;6.906;2023-06-24T07:01:18;19.70;99.90
52211;DHT22;38179;52.756;6.906;2023-06-24T07:03:45;19.70;99.90
52211;DHT22;38179;52.756;6.906;2023-06-24T07:06:10;19.80;99.90
52211;DHT22;38179;52.756;6.906;2023-06-24T07:08:36;19.90;99.90
52211;DHT22;38179;52.756;6.906;2023-06-24T07:11:03;19.90;99.90
52211;DHT22;38179;52.756;6.906;2023-06-24T07:13:51;20.00;99.90
52211;DHT22;38179;52.756;6.906;2023-06-24T07:16:17;20.10;99.90
52211;DHT22;38179;52.756;6.906;2023-06-24T07:18:44;20.20;99.90
52211;DHT22;38179;52.756;6.906;2023-06-24T07:21:10;20.20;99.90
52211;DHT22;38179;52.756;6.906;2023-06-24T07:23:36;20.20;99.90
52211;DHT22;38179;52.756;6.906;2023-06-24T07:26:01;20.30;99.90
52211;DHT22;38179;52.756;6.906;2023-06-24T07:28:27;20.40;99.90
52211;DHT22;38179;52.756;6.906;2023-06-24T07:30:53;20.50;99.90
52211;DHT22;38179;52.756;6.906;2023-06-24T07:33:19;20.50;99.90
52211;DHT22;38179;52.756;6.906;2023-06-24T07:35:45;20.60;99.90
52211;DHT22;38179;52.756;6.906;2023-06-24T07:38:11;20.70;99.90
52211;DHT22;38179;52.756;6.906;2023-06-24T07:40:37;20.80;99.90
52211;DHT22;38179;52.756;6.906;2023-06-24T07:43:04;20.80;99.90
52211;DHT22;38179;52.756;6.906;2023-06-24T07:45:30;20.90;99.90
52211;DHT22;38179;52.756;6.906;2023-06-24T07:47:56;21.00;99.90
52211;DHT22;38179;52.756;6.906;2023-06-24T07:50:23;21.00;99.90
52211;DHT22;38179;52.756;6.906;2023-06-24T07:52:49;21.10;99.90
52211;DHT22;38179;52.756;6.906;2023-06-24T07:55:17;21.20;99.90
52211;DHT22;38179;52.756;6.906;2023-06-24T07:57:45;21.30;99.90
52211;DHT22;38179;52.756;6.906;2023-06-24T08:00:13;21.30;99.90
52211;DHT22;38179;52.756;6.906;2023-06-24T08:02:41;21.40;99.90
52211;DHT22;38179;52.756;6.906;2023-06-24T08:05:11;21.40;99.90
52211;DHT22;38179;52.756;6.906;2023-06-24T08:07:38;21.50;99.90
52211;DHT22;38179;52.756;6.906;2023-06-24T08:10:04;21.60;99.90
52211;DHT22;38179;52.756;6.906;2023-06-24T08:12:31;21.70;99.90
52211;DHT22;38179;52.756;6.906;2023-06-24T08:14:57;21.70;99.90
52211;DHT22;38179;52.756;6.906;2023-06-24T08:17:23;21.70;99.90
52211;DHT22;38179;52.756;6.906;2023-06-24T08:19:49;21.80;99.90
52211;DHT22;38179;52.756;6.906;2023-06-24T08:22:15;21.80;99.90
52211;DHT22;38179;52.756;6.906;2023-06-24T08:24:40;21.90;99.90
52211;DHT22;38179;52.756;6.906;2023-06-24T08:27:06;21.90;99.90
52211;DHT22;38179;52.756;6.906;2023-06-24T08:29:34;21.90;99.90
52211;DHT22;38179;52.756;6.906;2023-06-24T08:32:00;22.00;99.90
52211;DHT22;38179;52.756;6.906;2023-06-24T08:34:26;22.10;99.90
52211;DHT22;38179;52.756;6.906;2023-06-24T08:36:52;22.10;99.90
52211;DHT22;38179;52.756;6.906;2023-06-24T08:39:18;22.10;99.90
52211;DHT22;38179;52.756;6.906;2023-06-24T08:41:44;22.20;99.90
52211;DHT22;38179;52.756;6.906;2023-06-24T08:44:10;22.20;99.90
52211;DHT22;38179;52.756;6.906;2023-06-24T08:46:36;22.30;99.90
52211;DHT22;38179;52.756;6.906;2023-06-24T08:51:55;22.40;99.90
52211;DHT22;38179;52.756;6.906;2023-06-24T08:54:24;22.40;99.90
52211;DHT22;38179;52.756;6.906;2023-06-24T08:56:50;22.40;99.90
52211;DHT22;38179;52.756;6.906;2023-06-24T08:59:17;22.50;99.90
52211;DHT22;38179;52.756;6.906;2023-06-24T09:01:45;22.60;99.90
52211;DHT22;38179;52.756;6.906;2023-06-24T09:04:11;22.80;99.90
52211;DHT22;38179;52.756;6.906;2023-06-24T09:06:38;22.80;99.90
52211;DHT22;38179;52.756;6.906;2023-06-24T09:09:04;22.90;99.90
52211;DHT22;38179;52.756;6.906;2023-06-24T09:11:31;22.90;99.90
52211;DHT22;38179;52.756;6.906;2023-06-24T09:13:59;22.90;99.90
52211;DHT22;38179;52.756;6.906;2023-06-24T09:16:26;22.90;99.90
52211;DHT22;38179;52.756;6.906;2023-06-24T09:18:53;23.00;99.90
52211;DHT22;38179;52.756;6.906;2023-06-24T09:21:26;23.00;99.90
52211;DHT22;38179;52.756;6.906;2023-06-24T09:23:53;23.10;99.90
52211;DHT22;38179;52.756;6.906;2023-06-24T09:26:26;23.10;99.90
52211;DHT22;38179;52.756;6.906;2023-06-24T09:28:53;23.10;99.90
52211;DHT22;38179;52.756;6.906;2023-06-24T09:31:20;23.10;99.90
52211;DHT22;38179;52.756;6.906;2023-06-24T09:33:47;23.10;99.90
52211;DHT22;38179;52.756;6.906;2023-06-24T09:36:14;23.20;99.90
52211;DHT22;38179;52.756;6.906;2023-06-24T09:38:42;23.20;99.90
52211;DHT22;38179;52.756;6.906;2023-06-24T09:41:10;23.30;99.90
52211;DHT22;38179;52.756;6.906;2023-06-24T09:43:37;23.40;99.90
52211;DHT22;38179;52.756;6.906;2023-06-24T09:46:06;23.50;99.90
52211;DHT22;38179;52.756;6.906;2023-06-24T09:48:35;23.50;99.90
52211;DHT22;38179;52.756;6.906;2023-06-24T09:51:03;23.50;99.90
52211;DHT22;38179;52.756;6.906;2023-06-24T09:53:34;23.60;99.90
52211;DHT22;38179;52.756;6.906;2023-06-24T09:56:03;23.60;99.90
52211;DHT22;38179;52.756;6.906;2023-06-24T09:58:32;23.60;99.90
52211;DHT22;38179;52.756;6.906;2023-06-24T10:01:03;23.60;99.90
52211;DHT22;38179;52.756;6.906;2023-06-24T10:03:35;23.60;99.90
52211;DHT22;38179;52.756;6.906;2023-06-24T10:06:02;23.70;99.90
52211;DHT22;38179;52.756;6.906;2023-06-24T10:08:30;23.70;99.90
52211;DHT22;38179;52.756;6.906;2023-06-24T10:10:56;23.80;99.90
52211;DHT22;38179;52.756;6.906;2023-06-24T10:13:23;23.90;99.90
52211;DHT22;38179;52.756;6.906;2023-06-24T10:15:49;23.80;99.90
52211;DHT22;38179;52.756;6.906;2023-06-24T10:20:56;23.90;99.90
52211;DHT22;38179;52.756;6.906;2023-06-24T10:23:30;23.90;99.90
52211;DHT22;38179;52.756;6.906;2023-06-24T10:25:56;24.00;99.90
52211;DHT22;38179;52.756;6.906;2023-06-24T10:28:22;24.00;99.90
52211;DHT22;38179;52.756;6.906;2023-06-24T10:30:55;24.00;99.90
52211;DHT22;38179;52.756;6.906;2023-06-24T10:33:23;24.00;99.90
52211;DHT22;38179;52.756;6.906;2023-06-24T10:35:50;24.00;99.90
52211;DHT22;38179;52.756;6.906;2023-06-24T10:38:17;24.00;99.90
52211;DHT22;38179;52.756;6.906;2023-06-24T10:40:43;24.10;99.90
52211;DHT22;38179;52.756;6.906;2023-06-24T10:43:38;24.10;99.90
52211;DHT22;38179;52.756;6.906;2023-06-24T10:46:14;24.10;99.90
52211;DHT22;38179;52.756;6.906;2023-06-24T10:48:41;24.20;99.90
52211;DHT22;38179;52.756;6.906;2023-06-24T10:51:07;24.20;99.90
52211;DHT22;38179;52.756;6.906;2023-06-24T10:53:33;24.20;99.90
52211;DHT22;38179;52.756;6.906;2023-06-24T10:55:59;24.40;99.90
52211;DHT22;38179;52.756;6.906;2023-06-24T10:58:26;24.50;99.90
52211;DHT22;38179;52.756;6.906;2023-06-24T11:00:52;24.50;99.90
52211;DHT22;38179;52.756;6.906;2023-06-24T11:03:18;24.60;99.90
52211;DHT22;38179;52.756;6.906;2023-06-24T11:05:46;24.60;99.90
52211;DHT22;38179;52.756;6.906;2023-06-24T11:08:14;24.60;99.90
52211;DHT22;38179;52.756;6.906;2023-06-24T11:10:47;24.60;99.90
52211;DHT22;38179;52.756;6.906;2023-06-24T11:13:13;24.60;99.90
52211;DHT22;38179;52.756;6.906;2023-06-24T11:15:40;24.60;99.90
52211;DHT22;38179;52.756;6.906;2023-06-24T11:18:10;24.50;99.90
52211;DHT22;38179;52.756;6.906;2023-06-24T11:20:39;24.40;99.90
52211;DHT22;38179;52.756;6.906;2023-06-24T11:23:09;24.30;99.90
52211;DHT22;38179;52.756;6.906;2023-06-24T11:25:40;24.40;99.90
52211;DHT22;38179;52.756;6.906;2023-06-24T11:28:17;24.40;99.90
52211;DHT22;38179;52.756;6.906;2023-06-24T11:30:43;24.60;99.90
52211;DHT22;38179;52.756;6.906;2023-06-24T11:33:08;24.60;99.90
52211;DHT22;38179;52.756;6.906;2023-06-24T11:35:34;24.70;99.90
52211;DHT22;38179;52.756;6.906;2023-06-24T11:38:02;24.70;99.90
52211;DHT22;38179;52.756;6.906;2023-06-24T11:40:30;24.80;99.90
52211;DHT22;38179;52.756;6.906;2023-06-24T11:42:59;24.80;99.90
52211;DHT22;38179;52.756;6.906;2023-06-24T11:45:25;24.90;99.90
52211;DHT22;38179;52.756;6.906;2023-06-24T11:47:51;24.90;99.90
52211;DHT22;38179;52.756;6.906;2023-06-24T11:50:18;25.00;99.90
52211;DHT22;38179;52.756;6.906;2023-06-24T11:52:51;25.10;99.90
52211;DHT22;38179;52.756;6.906;2023-06-24T11:55:20;25.10;99.90
52211;DHT22;38179;52.756;6.906;2023-06-24T11:57:47;25.00;99.90
52211;DHT22;38179;52.756;6.906;2023-06-24T12:00:26;25.20;99.90
52211;DHT22;38179;52.756;6.906;2023-06-24T12:03:05;25.30;99.90
52211;DHT22;38179;52.756;6.906;2023-06-24T12:05:32;25.30;99.90
52211;DHT22;38179;52.756;6.906;2023-06-24T12:08:03;25.30;99.90
52211;DHT22;38179;52.756;6.906;2023-06-24T12:10:31;25.30;99.90
52211;DHT22;38179;52.756;6.906;2023-06-24T12:13:02;25.30;99.90
52211;DHT22;38179;52.756;6.906;2023-06-24T12:15:28;25.50;99.90
52211;DHT22;38179;52.756;6.906;2023-06-24T12:17:55;25.50;99.90
52211;DHT22;38179;52.756;6.906;2023-06-24T12:20:21;25.50;99.90
52211;DHT22;38179;52.756;6.906;2023-06-24T12:22:48;25.70;99.90
52211;DHT22;38179;52.756;6.906;2023-06-24T12:25:15;25.70;99.90
52211;DHT22;38179;52.756;6.906;2023-06-24T12:27:42;25.80;99.90
52211;DHT22;38179;52.756;6.906;2023-06-24T12:30:09;25.90;99.90
52211;DHT22;38179;52.756;6.906;2023-06-24T12:32:36;25.90;99.90
52211;DHT22;38179;52.756;6.906;2023-06-24T12:35:03;25.90;99.90
52211;DHT22;38179;52.756;6.906;2023-06-24T12:37:33;26.00;99.90
52211;DHT22;38179;52.756;6.906;2023-06-24T12:39:59;26.00;99.90
52211;DHT22;38179;52.756;6.906;2023-06-24T12:42:26;25.90;99.90
52211;DHT22;38179;52.756;6.906;2023-06-24T12:44:53;25.90;99.90
52211;DHT22;38179;52.756;6.906;2023-06-24T12:47:20;26.00;99.90
52211;DHT22;38179;52.756;6.906;2023-06-24T12:49:46;26.00;99.90
52211;DHT22;38179;52.756;6.906;2023-06-24T12:52:13;26.10;99.90
52211;DHT22;38179;52.756;6.906;2023-06-24T12:54:41;26.10;99.90
52211;DHT22;38179;52.756;6.906;2023-06-24T12:57:07;26.20;99.90
52211;DHT22;38179;52.756;6.906;2023-06-24T12:59:33;26.20;99.90
52211;DHT22;38179;52.756;6.906;2023-06-24T13:01:59;26.10;99.90
52211;DHT22;38179;52.756;6.906;2023-06-24T13:04:24;26.00;99.90
52211;DHT22;38179;52.756;6.906;2023-06-24T13:06:51;25.90;99.90
52211;DHT22;38179;52.756;6.906;2023-06-24T13:09:17;25.80;99.90
52211;DHT22;38179;52.756;6.906;2023-06-24T13:11:43;25.80;99.90
52211;DHT22;38179;52.756;6.906;2023-06-24T13:14:09;25.90;99.90
52211;DHT22;38179;52.756;6.906;2023-06-24T13:16:36;26.00;99.90
52211;DHT22;38179;52.756;6.906;2023-06-24T13:19:02;26.10;99.90
52211;DHT22;38179;52.756;6.906;2023-06-24T13:21:29;26.40;99.90
52211;DHT22;38179;52.756;6.906;2023-06-24T13:23:55;26.50;99.90
52211;DHT22;38179;52.756;6.906;2023-06-24T13:26:21;26.70;99.90
52211;DHT22;38179;52.756;6.906;2023-06-24T13:28:47;26.60;99.90
52211;DHT22;38179;52.756;6.906;2023-06-24T13:31:14;26.50;99.90
52211;DHT22;38179;52.756;6.906;2023-06-24T13:33:41;26.50;99.90
52211;DHT22;38179;52.756;6.906;2023-06-24T13:36:08;26.50;99.90
52211;DHT22;38179;52.756;6.906;2023-06-24T13:38:37;26.60;99.90
52211;DHT22;38179;52.756;6.906;2023-06-24T13:41:03;26.80;99.90
52211;DHT22;38179;52.756;6.906;2023-06-24T13:43:29;26.70;99.90
52211;DHT22;38179;52.756;6.906;2023-06-24T13:45:55;26.60;99.90
52211;DHT22;38179;52.756;6.906;2023-06-24T13:48:20;26.50;99.90
52211;DHT22;38179;52.756;6.906;2023-06-24T13:50:46;26.40;99.90
52211;DHT22;38179;52.756;6.906;2023-06-24T13:53:12;26.40;99.90
52211;DHT22;38179;52.756;6.906;2023-06-24T13:55:38;26.30;99.90
52211;DHT22;38179;52.756;6.906;2023-06-24T13:58:04;26.20;99.90
52211;DHT22;38179;52.756;6.906;2023-06-24T14:00:30;26.10;99.90
52211;DHT22;38179;52.756;6.906;2023-06-24T14:02:56;26.10;99.90
52211;DHT22;38179;52.756;6.906;2023-06-24T14:05:22;26.20;99.90
52211;DHT22;38179;52.756;6.906;2023-06-24T14:07:48;26.20;99.90
52211;DHT22;38179;52.756;6.906;2023-06-24T14:10:15;26.30;99.90
52211;DHT22;38179;52.756;6.906;2023-06-24T14:12:40;26.40;99.90
52211;DHT22;38179;52.756;6.906;2023-06-24T14:15:09;26.50;99.90
52211;DHT22;38179;52.756;6.906;2023-06-24T14:17:35;26.60;99.90
52211;DHT22;38179;52.756;6.906;2023-06-24T14:20:04;26.80;99.90
52211;DHT22;38179;52.756;6.906;2023-06-24T14:22:30;26.60;99.90
52211;DHT22;38179;52.756;6.906;2023-06-24T14:24:56;26.90;99.90
52211;DHT22;38179;52.756;6.906;2023-06-24T14:27:22;26.80;99.90
52211;DHT22;38179;52.756;6.906;2023-06-24T14:29:48;26.60;99.90
52211;DHT22;38179;52.756;6.906;2023-06-24T14:32:14;26.60;99.90
52211;DHT22;38179;52.756;6.906;2023-06-24T14:34:40;26.50;99.90
52211;DHT22;38179;52.756;6.906;2023-06-24T14:37:05;26.60;99.90
52211;DHT22;38179;52.756;6.906;2023-06-24T14:39:31;26.50;99.90
52211;DHT22;38179;52.756;6.906;2023-06-24T14:41:57;26.50;99.90
52211;DHT22;38179;52.756;6.906;2023-06-24T14:44:23;26.40;99.90
52211;DHT22;38179;52.756;6.906;2023-06-24T14:46:49;26.30;99.90
52211;DHT22;38179;52.756;6.906;2023-06-24T14:49:15;26.20;99.90
52211;DHT22;38179;52.756;6.906;2023-06-24T14:51:43;26.20;99.90
52211;DHT22;38179;52.756;6.906;2023-06-24T14:54:08;26.20;99.90
52211;DHT22;38179;52.756;6.906;2023-06-24T14:56:34;26.20;99.90
52211;DHT22;38179;52.756;6.906;2023-06-24T14:59:00;26.20;99.90
52211;DHT22;38179;52.756;6.906;2023-06-24T15:01:26;26.20;99.90
52211;DHT22;38179;52.756;6.906;2023-06-24T15:03:52;26.20;99.90
52211;DHT22;38179;52.756;6.906;2023-06-24T15:06:18;26.20;99.90
52211;DHT22;38179;52.756;6.906;2023-06-24T15:08:44;26.10;99.90
52211;DHT22;38179;52.756;6.906;2023-06-24T15:11:10;26.10;99.90
52211;DHT22;38179;52.756;6.906;2023-06-24T15:13:36;26.10;99.90
52211;DHT22;38179;52.756;6.906;2023-06-24T15:16:02;26.10;99.90
52211;DHT22;38179;52.756;6.906;2023-06-24T15:18:29;26.00;99.90
52211;DHT22;38179;52.756;6.906;2023-06-24T15:20:54;26.00;99.90
52211;DHT22;38179;52.756;6.906;2023-06-24T15:23:22;26.00;99.90
52211;DHT22;38179;52.756;6.906;2023-06-24T15:25:48;26.00;99.90
52211;DHT22;38179;52.756;6.906;2023-06-24T15:28:15;26.00;99.90
52211;DHT22;38179;52.756;6.906;2023-06-24T15:30:41;26.00;99.90
52211;DHT22;38179;52.756;6.906;2023-06-24T15:33:07;25.90;99.90
52211;DHT22;38179;52.756;6.906;2023-06-24T15:35:33;25.90;99.90
52211;DHT22;38179;52.756;6.906;2023-06-24T15:37:59;25.90;99.90
52211;DHT22;38179;52.756;6.906;2023-06-24T15:40:25;25.90;99.90
52211;DHT22;38179;52.756;6.906;2023-06-24T15:42:50;25.90;99.90
52211;DHT22;38179;52.756;6.906;2023-06-24T15:45:16;25.90;99.90
52211;DHT22;38179;52.756;6.906;2023-06-24T15:47:42;25.90;99.90